Time;durP1;ratioP1;P1;durP2;ratioP2;P2;SDS_P1;SDS_P2;PMS_P1;PMS_P2;Temp;Humidity;BMP_temperature;BMP_pressure;BME280_temperature;BME280_humidity;BME280_pressure;Samples;Min_cycle;Max_cycle;Signal;HPM_P1;HPM_P2
2023/02/24 00:01:27;;;;;;;59.67;33.15;;;5.60;99.90;;;;;;5052835;28;20096;-79
2023/02/24 00:03:57;;;;;;;59.38;29.48;;;5.60;99.90;;;;;;5053153;28;20025;-79
2023/02/24 00:06:34;;;;;;;56.67;30.65;;;5.60;99.90;;;;;;5052532;28;20111;-79
2023/02/24 00:09:00;;;;;;;57.10;30.67;;;5.60;99.90;;;;;;5052599;28;20096;-79
2023/02/24 00:11:26;;;;;;;55.28;30.98;;;5.60;99.90;;;;;;5052436;28;20060;-79
2023/02/24 00:13:52;;;;;;;59.30;30.73;;;5.70;99.90;;;;;;5054421;28;20044;-79
2023/02/24 00:16:18;;;;;;;54.10;30.90;;;5.70;99.90;;;;;;5056442;28;20377;-79
2023/02/24 00:18:45;;;;;;;54.75;31.08;;;5.70;99.90;;;;;;5055318;28;20062;-79
2023/02/24 00:21:14;;;;;;;55.15;31.38;;;5.70;99.90;;;;;;5056071;28;20364;-79
2023/02/24 00:23:42;;;;;;;62.38;32.25;;;5.70;99.90;;;;;;5056322;28;20044;-79
2023/02/24 00:26:10;;;;;;;56.45;31.75;;;5.70;99.90;;;;;;5054804;28;20407;-79
2023/02/24 00:28:36;;;;;;;54.58;29.38;;;5.70;99.90;;;;;;5054926;28;20487;-79
2023/02/24 00:31:12;;;;;;;56.38;29.45;;;5.70;99.90;;;;;;5054607;28;20060;-80
2023/02/24 00:33:39;;;;;;;56.17;30.52;;;5.70;99.90;;;;;;5056094;28;20459;-79
2023/02/24 00:36:34;;;;;;;52.45;27.48;;;5.80;99.90;;;;;;5055856;28;20080;-79
2023/02/24 00:39:08;;;;;;;55.03;28.65;;;5.80;99.90;;;;;;5047537;28;20115;-79
2023/02/24 00:41:34;;;;;;;56.90;29.50;;;5.70;99.90;;;;;;5055761;28;20400;-79
2023/02/24 00:44:05;;;;;;;48.90;26.73;;;5.80;99.90;;;;;;5054447;28;20113;-79
2023/02/24 00:46:34;;;;;;;53.95;29.90;;;5.80;99.90;;;;;;5055755;28;20091;-79
2023/02/24 00:49:04;;;;;;;52.80;29.50;;;5.80;99.90;;;;;;5054732;28;20024;-80
2023/02/24 00:51:33;;;;;;;48.20;27.90;;;5.80;99.90;;;;;;5055578;28;20043;-79
2023/02/24 00:53:59;;;;;;;44.55;25.98;;;5.80;99.90;;;;;;5055752;28;20056;-79
2023/02/24 00:56:26;;;;;;;52.88;28.83;;;5.90;99.90;;;;;;5055346;28;20482;-79
2023/02/24 00:58:54;;;;;;;51.00;26.73;;;5.90;99.90;;;;;;5054318;28;20021;-79
2023/02/24 01:01:22;;;;;;;49.10;26.85;;;5.80;99.90;;;;;;5054447;28;20074;-79
2023/02/24 01:03:49;;;;;;;49.28;25.92;;;5.90;99.90;;;;;;5055491;28;20067;-80
2023/02/24 01:06:20;;;;;;;45.53;24.98;;;5.90;99.90;;;;;;5054403;28;20028;-79
2023/02/24 01:08:48;;;;;;;51.78;26.92;;;5.90;99.90;;;;;;5055522;28;20064;-80
2023/02/24 01:14:09;;;;;;;50.58;25.90;;;5.90;99.90;;;;;;5054414;28;20099;-79
2023/02/24 01:16:36;;;;;;;;;;;5.90;99.90;;;;;;5054476;28;20111;-79
2023/02/24 01:19:03;;;;;;;49.95;24.58;;;5.90;99.90;;;;;;5053959;28;20397;-79
2023/02/24 01:21:30;;;;;;;54.90;27.05;;;5.90;99.90;;;;;;5055165;28;20752;-79
2023/02/24 01:23:56;;;;;;;55.40;27.25;;;5.90;99.90;;;;;;5037217;28;20056;-79
2023/02/24 01:26:22;;;;;;;50.83;26.33;;;5.90;99.90;;;;;;5054370;28;20047;-79
2023/02/24 01:28:47;;;;;;;49.47;26.63;;;5.90;99.90;;;;;;5055024;28;20056;-79
2023/02/24 01:31:19;;;;;;;48.90;25.98;;;5.90;99.90;;;;;;5054733;28;20386;-79
2023/02/24 01:33:45;;;;;;;42.63;25.58;;;5.90;99.90;;;;;;5054856;28;20372;-79
2023/02/24 01:36:16;;;;;;;49.80;26.67;;;5.90;99.90;;;;;;5054633;28;20388;-79
2023/02/24 01:38:42;;;;;;;55.55;25.13;;;5.90;99.90;;;;;;5054893;28;20032;-79
2023/02/24 01:41:15;;;;;;;48.63;27.27;;;6.00;99.90;;;;;;5053675;28;20443;-79
2023/02/24 01:44:04;;;;;;;51.42;27.20;;;6.00;99.90;;;;;;5053841;28;20021;-79
2023/02/24 01:46:35;;;;;;;49.08;25.52;;;5.90;99.90;;;;;;5053293;28;20076;-78
2023/02/24 01:49:32;;;;;;;54.88;25.42;;;6.00;99.90;;;;;;5053745;28;20021;-79
2023/02/24 01:52:05;;;;;;;48.50;27.20;;;6.00;99.90;;;;;;5064032;28;20033;-79
2023/02/24 01:54:32;;;;;;;;;;;6.00;99.90;;;;;;5053647;28;20036;-79
2023/02/24 01:56:59;;;;;;;47.78;25.17;;;6.00;99.90;;;;;;5053049;28;20427;-79
2023/02/24 01:59:29;;;;;;;42.65;26.05;;;6.00;99.90;;;;;;5054850;28;20028;-79
2023/02/24 02:02:03;;;;;;;47.90;24.60;;;6.00;99.90;;;;;;5053880;28;20013;-80
2023/02/24 02:04:45;;;;;;;43.97;23.80;;;6.00;99.90;;;;;;5054237;28;20028;-79
2023/02/24 02:07:12;;;;;;;40.95;23.50;;;6.00;99.90;;;;;;5054151;28;20021;-79
2023/02/24 02:09:42;;;;;;;39.60;23.35;;;6.00;99.90;;;;;;5052844;28;20029;-79
2023/02/24 02:12:09;;;;;;;39.70;22.08;;;6.10;99.90;;;;;;5053101;28;20021;-79
2023/02/24 02:14:46;;;;;;;46.08;24.33;;;6.10;99.90;;;;;;5054030;28;20073;-79
2023/02/24 02:17:34;;;;;;;41.85;21.77;;;6.10;99.90;;;;;;5054168;28;20052;-80
2023/02/24 02:20:16;;;;;;;44.22;23.63;;;6.10;99.90;;;;;;5052839;28;20025;-80
2023/02/24 02:23:12;;;;;;;43.15;23.15;;;6.10;99.90;;;;;;5052957;28;20025;-79
2023/02/24 02:25:56;;;;;;;46.63;22.63;;;6.10;99.90;;;;;;5054035;28;20032;-79
2023/02/24 02:28:45;;;;;;;39.78;21.52;;;6.10;99.90;;;;;;5052579;28;20429;-79
2023/02/24 02:31:24;;;;;;;39.20;22.13;;;6.10;99.90;;;;;;5053694;28;20025;-79
2023/02/24 02:33:56;;;;;;;43.13;23.55;;;6.10;99.90;;;;;;5053788;28;20382;-80
2023/02/24 02:36:35;;;;;;;50.90;24.73;;;6.10;99.90;;;;;;5051750;28;20043;-80
2023/02/24 02:39:10;;;;;;;42.03;22.27;;;6.10;99.90;;;;;;5054079;28;20029;-79
2023/02/24 02:41:36;;;;;;;44.67;22.73;;;6.10;99.90;;;;;;5053874;28;20375;-79
2023/02/24 02:44:10;;;;;;;44.35;22.27;;;6.10;99.90;;;;;;5052692;28;20028;-79
2023/02/24 02:46:46;;;;;;;44.63;22.88;;;6.10;99.90;;;;;;5052487;28;20040;-79
2023/02/24 02:49:36;;;;;;;43.72;22.17;;;6.10;99.90;;;;;;5053582;28;20363;-79
2023/02/24 02:52:12;;;;;;;34.80;20.17;;;6.10;99.90;;;;;;5053365;28;20025;-79
2023/02/24 02:54:49;;;;;;;39.47;22.08;;;6.10;99.90;;;;;;5053394;28;20371;-79
2023/02/24 02:57:19;;;;;;;38.30;20.13;;;6.00;99.90;;;;;;5053378;28;20056;-79
2023/02/24 03:00:09;;;;;;;32.60;20.30;;;6.10;99.90;;;;;;5053710;28;20051;-79
2023/02/24 03:02:38;;;;;;;38.28;20.60;;;6.10;99.90;;;;;;5051937;28;20108;-79
2023/02/24 03:05:09;;;;;;;42.97;22.20;;;6.10;99.90;;;;;;5053183;28;20031;-79
2023/02/24 03:07:39;;;;;;;41.65;20.80;;;6.10;99.90;;;;;;5052219;28;20025;-79
2023/02/24 03:10:19;;;;;;;42.25;21.52;;;6.10;99.90;;;;;;5053249;28;20017;-79
2023/02/24 03:12:50;;;;;;;36.17;21.20;;;6.10;99.90;;;;;;5053303;28;20025;-79
2023/02/24 03:15:19;;;;;;;39.58;22.20;;;6.10;99.90;;;;;;5052281;28;20432;-79
2023/02/24 03:17:48;;;;;;;37.92;20.20;;;6.10;99.90;;;;;;5053011;28;20108;-79
2023/02/24 03:20:28;;;;;;;36.90;19.10;;;6.10;99.90;;;;;;5051775;28;20091;-79
2023/02/24 03:23:16;;;;;;;35.63;19.23;;;6.10;99.90;;;;;;5052239;28;20029;-79
2023/02/24 03:25:50;;;;;;;38.55;20.55;;;6.10;99.90;;;;;;5052107;28;20033;-79
2023/02/24 03:28:36;;;;;;;40.60;20.42;;;6.10;99.90;;;;;;5053003;28;20024;-79
2023/02/24 03:31:07;;;;;;;36.28;19.98;;;6.10;99.90;;;;;;5053084;28;20104;-79
2023/02/24 03:33:48;;;;;;;36.25;18.95;;;6.10;99.90;;;;;;5052884;28;20038;-79
2023/02/24 03:36:13;;;;;;;35.10;20.27;;;6.10;99.90;;;;;;5053027;28;20056;-80
2023/02/24 03:38:41;;;;;;;41.33;20.25;;;6.10;99.90;;;;;;5051902;28;20119;-79
2023/02/24 03:41:10;;;;;;;39.58;19.42;;;6.10;99.90;;;;;;5052937;28;20025;-79
2023/02/24 03:43:43;;;;;;;36.45;20.05;;;6.10;99.90;;;;;;5053046;28;20364;-81
2023/02/24 03:46:09;;;;;;;42.72;20.52;;;6.20;99.90;;;;;;5053543;28;20057;-79
2023/02/24 03:48:45;;;;;;;37.70;19.92;;;6.20;99.90;;;;;;5060239;28;20027;-79
2023/02/24 03:51:16;;;;;;;34.13;19.73;;;6.10;99.90;;;;;;5057068;28;20021;-81
2023/02/24 03:54:07;;;;;;;36.10;19.73;;;6.10;99.90;;;;;;5055461;28;20452;-80
2023/02/24 03:56:59;;;;;;;37.60;20.00;;;6.20;99.90;;;;;;5055475;28;20108;-80
2023/02/24 03:59:36;;;;;;;39.03;20.63;;;6.10;99.90;;;;;;5055835;28;20021;-80
2023/02/24 04:02:19;;;;;;;34.70;19.48;;;6.20;99.90;;;;;;5056784;28;20028;-79
2023/02/24 04:04:58;;;;;;;37.60;18.85;;;6.20;99.90;;;;;;5055407;28;20021;-79
2023/02/24 04:07:51;;;;;;;39.05;21.38;;;6.10;99.90;;;;;;5056551;28;20112;-79
2023/02/24 04:10:35;;;;;;;44.63;23.98;;;6.10;99.90;;;;;;5055666;28;20112;-80
2023/02/24 04:13:24;;;;;;;53.20;28.27;;;6.20;99.90;;;;;;5055290;28;20021;-80
2023/02/24 04:16:04;;;;;;;50.15;27.92;;;6.10;99.90;;;;;;5055410;28;20052;-80
2023/02/24 04:18:31;;;;;;;48.25;26.77;;;6.10;99.90;;;;;;5055400;28;20025;-79
2023/02/24 04:21:00;;;;;;;58.88;29.00;;;6.10;99.90;;;;;;5055089;28;20035;-79
2023/02/24 04:23:31;;;;;;;47.55;26.60;;;6.10;99.90;;;;;;5056219;28;20506;-80
2023/02/24 04:25:56;;;;;;;44.78;25.42;;;6.10;99.90;;;;;;5055017;28;20029;-80
2023/02/24 04:28:23;;;;;;;48.88;27.00;;;6.10;99.90;;;;;;5056508;28;20120;-79
2023/02/24 04:30:54;;;;;;;50.67;27.85;;;6.10;99.90;;;;;;5056137;28;20057;-80
2023/02/24 04:33:20;;;;;;;52.08;28.45;;;6.00;99.90;;;;;;5055961;28;20040;-80
2023/02/24 04:35:49;;;;;;;48.70;27.20;;;6.10;99.90;;;;;;5056061;28;20386;-80
2023/02/24 04:38:15;;;;;;;47.20;24.67;;;6.00;99.90;;;;;;5055934;28;20075;-80
2023/02/24 04:40:41;;;;;;;46.00;25.38;;;6.00;99.90;;;;;;5054576;28;20029;-80
2023/02/24 04:43:08;;;;;;;45.08;26.55;;;6.00;99.90;;;;;;5054452;28;20013;-79
2023/02/24 04:45:34;;;;;;;45.53;26.17;;;6.00;99.90;;;;;;5055771;28;20055;-79
2023/02/24 04:48:01;;;;;;;50.35;27.88;;;6.00;99.90;;;;;;5056166;28;20052;-80
2023/02/24 04:50:31;;;;;;;51.35;26.20;;;6.00;99.90;;;;;;5054454;28;20048;-79
2023/02/24 04:52:59;;;;;;;43.88;25.55;;;5.90;99.90;;;;;;5055651;28;20052;-80
2023/02/24 04:55:33;;;;;;;51.90;26.10;;;5.90;99.90;;;;;;5054227;28;20036;-81
2023/02/24 04:58:02;;;;;;;49.78;25.92;;;5.90;99.90;;;;;;5053791;28;20021;-80
2023/02/24 05:00:35;;;;;;;50.25;26.98;;;5.90;99.90;;;;;;5054525;28;20028;-79
2023/02/24 05:03:04;;;;;;;46.78;27.23;;;5.80;99.90;;;;;;5054540;28;20021;-80
2023/02/24 05:05:32;;;;;;;51.72;25.90;;;5.80;99.90;;;;;;5054396;28;20021;-80
2023/02/24 05:08:05;;;;;;;49.50;26.02;;;5.80;99.90;;;;;;5054422;28;20036;-79
2023/02/24 05:10:37;;;;;;;;;;;5.80;99.90;;;;;;5054895;28;20021;-80
2023/02/24 05:13:05;;;;;;;46.22;26.52;;;5.70;99.90;;;;;;5053805;28;20011;-80
2023/02/24 05:15:31;;;;;;;46.95;26.83;;;5.70;99.90;;;;;;5053856;28;20029;-80
2023/02/24 05:18:06;;;;;;;52.40;29.95;;;5.70;99.90;;;;;;5055155;28;20147;-79
2023/02/24 05:23:30;;;;;;;60.92;31.58;;;5.70;99.90;;;;;;5055295;28;20075;-80
2023/02/24 05:25:59;;;;;;;55.75;28.50;;;5.60;99.90;;;;;;5054926;28;20022;-79
2023/02/24 05:28:30;;;;;;;49.20;27.00;;;5.60;99.90;;;;;;5055152;28;20410;-79
2023/02/24 05:31:07;;;;;;;52.38;27.77;;;5.60;99.90;;;;;;5055104;28;20025;-80
2023/02/24 05:33:33;;;;;;;50.08;27.58;;;5.50;99.90;;;;;;5054910;28;20055;-80
2023/02/24 05:36:05;;;;;;;52.58;28.27;;;5.60;99.90;;;;;;5054975;28;20155;-80
2023/02/24 05:38:31;;;;;;;51.47;27.38;;;5.50;99.90;;;;;;5054988;28;20386;-80
2023/02/24 05:41:07;;;;;;;50.13;27.73;;;5.50;99.90;;;;;;5054563;28;20025;-80
2023/02/24 05:43:34;;;;;;;49.83;27.55;;;5.50;99.90;;;;;;5054904;28;20029;-79
2023/02/24 05:46:02;;;;;;;48.03;25.92;;;5.50;99.90;;;;;;5054408;28;20047;-79
2023/02/24 05:48:33;;;;;;;51.72;27.88;;;5.40;99.90;;;;;;5053639;28;20498;-80
2023/02/24 05:51:02;;;;;;;45.33;26.25;;;5.40;99.90;;;;;;5054327;28;20080;-80
2023/02/24 05:53:28;;;;;;;57.10;28.67;;;5.40;99.90;;;;;;5054433;28;20021;-80
2023/02/24 05:55:54;;;;;;;54.78;28.13;;;5.40;99.90;;;;;;5053346;28;20437;-80
2023/02/24 05:58:20;;;;;;;55.53;28.67;;;5.50;99.90;;;;;;5054411;28;20116;-80
2023/02/24 06:00:45;;;;;;;52.97;27.58;;;5.40;99.90;;;;;;5054169;28;20024;-80
2023/02/24 06:03:16;;;;;;;55.85;29.50;;;5.40;99.90;;;;;;5053175;28;20025;-80
2023/02/24 06:05:52;;;;;;;49.60;26.77;;;5.40;99.90;;;;;;5052981;28;20108;-80
2023/02/24 06:08:18;;;;;;;52.75;29.20;;;5.40;99.90;;;;;;5053237;28;20017;-81
2023/02/24 06:10:46;;;;;;;55.03;28.90;;;5.40;99.90;;;;;;5052060;28;20492;-81
2023/02/24 06:13:11;;;;;;;54.45;28.02;;;5.40;99.90;;;;;;5054337;28;20462;-80
2023/02/24 06:15:37;;;;;;;57.00;28.00;;;5.40;99.90;;;;;;5054933;28;20041;-79
2023/02/24 06:18:03;;;;;;;51.95;28.02;;;5.40;99.90;;;;;;5053736;28;20021;-81
2023/02/24 06:20:31;;;;;;;53.30;28.33;;;5.40;99.90;;;;;;5052339;28;20028;-80
2023/02/24 06:22:57;;;;;;;52.42;27.23;;;5.40;99.90;;;;;;5038552;28;20047;-82
2023/02/24 06:25:24;;;;;;;49.55;26.88;;;5.40;99.90;;;;;;5046137;28;20029;-80
2023/02/24 06:27:53;;;;;;;52.42;27.63;;;5.40;99.90;;;;;;5045551;28;20536;-80
2023/02/24 06:30:21;;;;;;;53.33;28.00;;;5.40;99.90;;;;;;5051176;28;20406;-80
2023/02/24 06:32:47;;;;;;;44.15;25.50;;;5.40;99.90;;;;;;5049882;28;20055;-79
2023/02/24 06:35:13;;;;;;;38.40;23.30;;;5.50;99.90;;;;;;5048724;28;20123;-79
2023/02/24 06:37:39;;;;;;;43.10;24.00;;;5.50;99.90;;;;;;5067249;28;20036;-79
2023/02/24 06:40:14;;;;;;;46.78;24.27;;;5.50;99.90;;;;;;5052236;28;20021;-81
2023/02/24 06:42:48;;;;;;;42.03;24.38;;;5.50;99.90;;;;;;5050802;28;20098;-81
2023/02/24 06:45:15;;;;;;;45.28;25.00;;;5.50;99.90;;;;;;5053005;28;20053;-80
2023/02/24 06:47:42;;;;;;;46.97;26.17;;;5.50;99.90;;;;;;5052191;28;20032;-81
2023/02/24 06:50:10;;;;;;;45.05;26.33;;;5.40;99.90;;;;;;5053648;28;20049;-80
2023/02/24 06:52:36;;;;;;;43.78;22.80;;;5.40;99.90;;;;;;5051908;28;20399;-81
2023/02/24 06:55:03;;;;;;;40.80;23.85;;;5.40;99.90;;;;;;5053055;28;20501;-80
2023/02/24 06:57:33;;;;;;;45.95;25.52;;;5.40;99.90;;;;;;5051760;28;20025;-80
2023/02/24 07:00:00;;;;;;;46.65;25.63;;;5.40;99.90;;;;;;5052177;28;20040;-80
2023/02/24 07:02:33;;;;;;;45.85;26.10;;;5.40;99.90;;;;;;5051475;28;20418;-80
2023/02/24 07:04:59;;;;;;;40.92;24.15;;;5.30;99.90;;;;;;5052876;28;20024;-80
2023/02/24 07:07:25;;;;;;;49.10;25.83;;;5.40;99.90;;;;;;5052674;28;20029;-80
2023/02/24 07:09:50;;;;;;;45.97;24.80;;;5.40;99.90;;;;;;5052978;28;20025;-80
2023/02/24 07:12:19;;;;;;;48.53;26.17;;;5.40;99.90;;;;;;5052474;28;20032;-80
2023/02/24 07:14:49;;;;;;;44.75;26.13;;;5.40;99.90;;;;;;5052691;28;20033;-81
2023/02/24 07:17:17;;;;;;;48.95;26.63;;;5.40;99.90;;;;;;5052402;28;20446;-80
2023/02/24 07:19:43;;;;;;;47.80;25.05;;;5.40;99.90;;;;;;5052551;28;20029;-81
2023/02/24 07:22:09;;;;;;;47.83;27.80;;;5.40;99.90;;;;;;5052334;28;20029;-80
2023/02/24 07:24:37;;;;;;;57.22;28.98;;;5.40;99.90;;;;;;5051798;28;20147;-80
2023/02/24 07:27:05;;;;;;;58.05;29.63;;;5.40;99.90;;;;;;5050834;28;20070;-81
2023/02/24 07:29:32;;;;;;;54.53;29.45;;;5.40;99.90;;;;;;5052663;28;20542;-81
2023/02/24 07:32:01;;;;;;;56.28;29.63;;;5.50;99.90;;;;;;5052518;28;20828;-80
2023/02/24 07:34:28;;;;;;;60.45;29.08;;;5.40;99.90;;;;;;5051871;28;20039;-81
2023/02/24 07:36:55;;;;;;;63.38;32.80;;;5.40;99.90;;;;;;5052692;28;20415;-81
2023/02/24 07:39:21;;;;;;;58.33;31.65;;;5.50;99.90;;;;;;5052624;28;20031;-81
2023/02/24 07:41:49;;;;;;;58.90;31.58;;;5.50;99.90;;;;;;5051483;28;20436;-81
2023/02/24 07:44:17;;;;;;;57.60;29.98;;;5.50;99.90;;;;;;5051580;28;20021;-81
2023/02/24 07:46:43;;;;;;;63.35;31.90;;;5.50;99.90;;;;;;5051222;28;20490;-81
2023/02/24 07:49:14;;;;;;;71.05;33.08;;;5.60;99.90;;;;;;5051501;28;20415;-81
2023/02/24 07:51:41;;;;;;;61.88;32.47;;;5.60;99.90;;;;;;5052291;28;20033;-82
2023/02/24 07:54:07;;;;;;;61.58;31.92;;;5.60;99.90;;;;;;5051443;28;20037;-81
2023/02/24 07:56:33;;;;;;;56.17;31.33;;;5.60;99.90;;;;;;5052396;28;20025;-81
2023/02/24 07:59:02;;;;;;;55.42;31.02;;;5.60;99.90;;;;;;5051326;28;20124;-82
2023/02/24 08:01:36;;;;;;;59.05;29.90;;;5.60;99.90;;;;;;5051140;28;20045;-81
2023/02/24 08:04:06;;;;;;;62.10;32.03;;;5.60;99.90;;;;;;5051307;28;20021;-81
2023/02/24 08:06:42;;;;;;;53.47;30.42;;;5.60;99.90;;;;;;5052214;28;20047;-81
2023/02/24 08:09:19;;;;;;;61.47;30.23;;;5.60;99.90;;;;;;5051187;28;20470;-81
2023/02/24 08:11:53;;;;;;;62.28;32.35;;;5.60;99.90;;;;;;5052904;28;20029;-81
2023/02/24 08:14:24;;;;;;;68.13;34.03;;;5.60;99.90;;;;;;5051980;28;20037;-82
2023/02/24 08:16:58;;;;;;;64.72;33.40;;;5.60;99.90;;;;;;5051997;28;20018;-82
2023/02/24 08:19:31;;;;;;;67.20;35.20;;;5.60;99.90;;;;;;5050887;28;20078;-81
2023/02/24 08:22:18;;;;;;;69.72;35.72;;;5.60;99.90;;;;;;5052279;28;20066;-81
2023/02/24 08:24:44;;;;;;;72.93;35.15;;;5.70;99.90;;;;;;5051170;28;20029;-82
2023/02/24 08:27:10;;;;;;;66.93;34.72;;;5.60;99.90;;;;;;5051996;28;20029;-81
2023/02/24 08:32:32;;;;;;;67.97;34.50;;;5.60;99.90;;;;;;5059509;28;20036;-82
2023/02/24 08:35:04;;;;;;;70.82;33.53;;;5.60;99.90;;;;;;5064785;28;20032;-82
2023/02/24 08:37:33;;;;;;;75.17;36.03;;;5.70;99.90;;;;;;5061732;28;20040;-81
2023/02/24 08:39:59;;;;;;;73.90;34.90;;;5.70;99.90;;;;;;5060778;28;20338;-82
2023/02/24 08:42:33;;;;;;;79.22;37.78;;;5.70;99.90;;;;;;5055355;28;20037;-81
2023/02/24 08:45:00;;;;;;;79.40;39.03;;;5.80;99.90;;;;;;5055345;28;20394;-81
2023/02/24 08:47:29;;;;;;;75.50;34.50;;;5.80;99.90;;;;;;5055901;28;20040;-81
2023/02/24 08:50:01;;;;;;;79.13;38.38;;;5.80;99.90;;;;;;5054830;28;20025;-82
2023/02/24 08:52:27;;;;;;;75.28;38.92;;;5.80;99.90;;;;;;5056101;28;20025;-81
2023/02/24 08:54:58;;;;;;;77.32;36.72;;;5.80;99.90;;;;;;5055325;28;20037;-80
2023/02/24 08:57:26;;;;;;;82.18;35.75;;;5.80;99.90;;;;;;5059514;28;20025;-81
2023/02/24 08:59:56;;;;;;;76.85;36.35;;;5.80;99.90;;;;;;5055290;28;20024;-82
2023/02/24 09:02:26;;;;;;;76.93;39.97;;;5.80;99.90;;;;;;5054027;28;20108;-81
2023/02/24 09:05:06;;;;;;;79.38;38.47;;;5.80;99.90;;;;;;5057289;28;20043;-78
2023/02/24 09:07:36;;;;;;;75.18;36.95;;;5.80;99.90;;;;;;5057063;28;20115;-82
2023/02/24 09:10:20;;;;;;;78.07;39.45;;;5.80;99.90;;;;;;5054154;28;20025;-82
2023/02/24 09:12:47;;;;;;;78.88;38.95;;;5.90;99.90;;;;;;5054985;28;20108;-82
2023/02/24 09:15:14;;;;;;;83.78;42.10;;;5.80;99.90;;;;;;5054571;28;20474;-81
2023/02/24 09:23:07;;;;;;;84.72;42.40;;;5.90;99.90;;;;;;5052385;28;20040;-81
2023/02/24 09:25:39;;;;;;;79.38;40.25;;;5.90;99.90;;;;;;5053960;28;20056;-81
2023/02/24 09:28:15;;;;;;;74.83;39.83;;;5.90;99.90;;;;;;5052883;28;20040;-81
2023/02/24 09:30:54;;;;;;;85.43;40.08;;;5.90;99.90;;;;;;5054050;28;20321;-81
2023/02/24 09:33:40;;;;;;;74.53;36.70;;;5.90;99.90;;;;;;5053487;28;20483;-81
2023/02/24 09:36:18;;;;;;;78.05;37.30;;;5.90;99.90;;;;;;5051729;28;20054;-81
2023/02/24 09:44:43;;;;;;;80.57;40.97;;;6.00;99.90;;;;;;5053600;28;20099;-81
2023/02/24 09:50:19;;;;;;;90.07;41.28;;;6.00;99.90;;;;;;5054309;28;20035;-81
2023/02/24 09:52:51;;;;;;;81.38;40.70;;;6.00;99.90;;;;;;5054053;28;20056;-81
2023/02/24 09:55:44;;;;;;;85.72;43.28;;;6.00;99.90;;;;;;5052543;28;20059;-81
2023/02/24 09:58:29;;;;;;;;;;;6.00;99.90;;;;;;5061409;28;20116;-81
2023/02/24 10:01:22;;;;;;;87.85;44.00;;;6.10;99.90;;;;;;5072532;28;19904;-81
2023/02/24 10:04:03;;;;;;;88.35;43.45;;;6.20;99.90;;;;;;5054420;28;20025;-81
2023/02/24 10:06:36;;;;;;;101.90;46.53;;;6.20;99.90;;;;;;5052407;28;20028;-81
2023/02/24 10:09:15;;;;;;;102.72;49.20;;;6.30;99.90;;;;;;5053860;28;20021;-82
2023/02/24 10:11:53;;;;;;;93.25;45.13;;;6.30;99.90;;;;;;5053439;28;20021;-81
2023/02/24 10:14:37;;;;;;;88.45;42.45;;;6.30;99.90;;;;;;5052492;28;20033;-81
2023/02/24 10:17:24;;;;;;;87.35;42.00;;;6.30;99.90;;;;;;5053878;28;20584;-81
2023/02/24 10:20:01;;;;;;;90.28;45.63;;;6.40;99.90;;;;;;5053702;28;20017;-81
2023/02/24 10:22:49;;;;;;;83.65;44.67;;;6.40;99.90;;;;;;5053209;28;20025;-81
2023/02/24 10:25:38;;;;;;;82.28;43.55;;;6.40;99.90;;;;;;5053543;28;20025;-81
2023/02/24 10:28:23;;;;;;;89.50;43.00;;;6.50;99.90;;;;;;5053302;28;20025;-81
2023/02/24 10:31:08;;;;;;;83.22;43.92;;;6.50;99.90;;;;;;5053836;28;20075;-81
2023/02/24 10:33:43;;;;;;;89.45;41.45;;;6.60;99.90;;;;;;5052811;28;20123;-81
2023/02/24 10:36:25;;;;;;;88.30;41.15;;;6.60;99.90;;;;;;5052108;28;20025;-81
2023/02/24 10:38:54;;;;;;;91.23;41.47;;;6.80;99.90;;;;;;5052495;28;20028;-81
2023/02/24 10:41:27;;;;;;;83.03;41.72;;;7.00;99.90;;;;;;5050674;28;20764;-81
2023/02/24 10:43:56;;;;;;;92.05;43.28;;;7.10;99.90;;;;;;5051900;28;20047;-81
2023/02/24 10:46:32;;;;;;;79.82;38.88;;;7.10;99.90;;;;;;5053033;28;20045;-81
2023/02/24 10:48:59;;;;;;;68.75;36.30;;;7.00;99.90;;;;;;5053607;28;20041;-80
2023/02/24 10:51:31;;;;;;;75.32;36.88;;;7.00;99.90;;;;;;5051388;28;20025;-81
2023/02/24 10:57:06;;;;;;;72.10;36.10;;;6.80;99.90;;;;;;5050406;28;20403;-81
2023/02/24 10:59:57;;;;;;;68.47;34.83;;;6.80;99.90;;;;;;5050841;28;20482;-81
2023/02/24 11:02:28;;;;;;;74.05;35.88;;;6.80;99.90;;;;;;5050886;28;20067;-81
2023/02/24 11:07:44;;;;;;;72.10;37.53;;;6.80;99.90;;;;;;5052251;28;20033;-81
2023/02/24 11:10:17;;;;;;;75.70;39.23;;;6.80;99.90;;;;;;5052257;28;20031;-81
2023/02/24 11:18:23;;;;;;;77.68;43.30;;;6.70;99.90;;;;;;5031921;28;20045;-81
2023/02/24 11:20:54;;;;;;;76.40;39.05;;;6.80;99.90;;;;;;5033039;28;20021;-81
2023/02/24 11:23:27;;;;;;;80.97;39.85;;;6.80;99.90;;;;;;5053175;28;20029;-80
2023/02/24 11:26:09;;;;;;;84.78;42.58;;;6.90;99.90;;;;;;5050418;28;20025;-81
2023/02/24 11:28:54;;;;;;;79.32;39.90;;;6.90;99.90;;;;;;5051727;28;20032;-81
2023/02/24 11:31:26;;;;;;;78.93;40.42;;;7.10;99.90;;;;;;5052453;28;20024;-81
2023/02/24 11:34:29;;;;;;;75.75;38.65;;;7.10;99.90;;;;;;5052605;28;20060;-81
2023/02/24 11:37:07;;;;;;;78.70;40.95;;;7.20;99.90;;;;;;5051463;28;20041;-81
2023/02/24 11:40:02;;;;;;;76.85;40.03;;;7.30;99.90;;;;;;5051184;28;20029;-81
2023/02/24 11:42:45;;;;;;;81.63;40.05;;;7.30;99.90;;;;;;5050613;28;20087;-81
2023/02/24 11:45:21;;;;;;;76.05;39.78;;;7.30;99.90;;;;;;5052919;28;20520;-81
2023/02/24 11:48:14;;;;;;;81.63;41.78;;;7.40;99.90;;;;;;5051424;28;20474;-81
2023/02/24 11:50:52;;;;;;;;;;;7.40;99.90;;;;;;5042320;28;20075;-81
2023/02/24 11:53:26;;;;;;;104.82;52.85;;;7.40;99.90;;;;;;5052832;28;19916;-81
2023/02/24 11:56:23;;;;;;;144.38;72.63;;;7.40;99.90;;;;;;5051155;28;20063;-81
2023/02/24 11:58:49;;;;;;;228.00;104.57;;;7.30;99.90;;;;;;5036291;28;20037;-81
2023/02/24 12:01:39;;;;;;;192.75;84.63;;;7.30;99.90;;;;;;5051124;28;20132;-81
2023/02/24 12:04:17;;;;;;;199.50;90.22;;;7.30;99.90;;;;;;5051585;28;20017;-81
2023/02/24 12:07:04;;;;;;;212.07;95.32;;;7.20;99.90;;;;;;5052431;28;20555;-81
2023/02/24 12:09:46;;;;;;;153.85;73.45;;;7.20;99.90;;;;;;5054255;28;20029;-81
2023/02/24 12:12:23;;;;;;;196.75;92.95;;;7.20;99.90;;;;;;5056391;28;20150;-81
2023/02/24 12:14:56;;;;;;;229.15;105.22;;;7.20;99.90;;;;;;5055187;28;20040;-81
2023/02/24 12:17:34;;;;;;;222.82;103.97;;;7.30;99.90;;;;;;5056555;28;20104;-81
2023/02/24 12:20:22;;;;;;;168.32;80.75;;;7.30;99.90;;;;;;5056221;28;20035;-81
2023/02/24 12:22:56;;;;;;;125.88;68.68;;;7.60;99.90;;;;;;5055919;28;20049;-81
2023/02/24 12:25:26;;;;;;;132.70;65.82;;;7.70;99.90;;;;;;5054963;28;20063;-81
2023/02/24 12:28:00;;;;;;;86.60;44.72;;;8.00;99.90;;;;;;5055900;28;20032;-81
2023/02/24 12:30:56;;;;;;;85.47;44.35;;;8.10;99.90;;;;;;5054930;28;20478;-81
2023/02/24 12:33:37;;;;;;;111.57;54.85;;;8.20;99.90;;;;;;5055961;28;20064;-81
2023/02/24 12:36:32;;;;;;;78.35;40.97;;;8.40;99.90;;;;;;5055922;28;20029;-81
2023/02/24 12:39:28;;;;;;;66.32;34.53;;;8.40;99.90;;;;;;5055399;28;20041;-81
2023/02/24 12:42:15;;;;;;;66.35;34.70;;;8.40;99.90;;;;;;5055316;28;20029;-81
2023/02/24 12:44:48;;;;;;;68.10;35.97;;;8.40;99.90;;;;;;5055680;28;20476;-81
2023/02/24 12:47:19;;;;;;;72.18;42.15;;;8.20;99.90;;;;;;5055477;28;20032;-81
2023/02/24 12:50:00;;;;;;;99.63;51.50;;;8.20;99.90;;;;;;5055856;28;20459;-81
2023/02/24 12:52:44;;;;;;;96.90;49.97;;;8.20;99.90;;;;;;5054176;28;20024;-81
2023/02/24 12:55:20;;;;;;;78.38;43.95;;;8.20;99.90;;;;;;5055387;28;20041;-81
2023/02/24 12:57:58;;;;;;;90.60;43.25;;;8.20;99.90;;;;;;5054172;28;20017;-81
2023/02/24 13:00:47;;;;;;;82.93;45.42;;;8.10;99.90;;;;;;5055515;28;20031;-81
2023/02/24 13:03:27;;;;;;;73.22;38.22;;;8.10;99.90;;;;;;5055205;28;20029;-81
2023/02/24 13:06:13;;;;;;;73.88;38.20;;;8.00;99.90;;;;;;5055236;28;20029;-81
2023/02/24 13:08:44;;;;;;;68.28;35.03;;;7.90;99.90;;;;;;5055427;28;20021;-81
2023/02/24 13:11:35;;;;;;;70.57;38.22;;;7.80;99.90;;;;;;5054578;28;20112;-81
2023/02/24 13:14:15;;;;;;;96.22;49.88;;;7.80;99.90;;;;;;5055513;28;20037;-81
2023/02/24 13:16:41;;;;;;;88.40;44.35;;;7.80;99.90;;;;;;5053627;28;20021;-81
2023/02/24 13:19:17;;;;;;;82.43;42.08;;;7.70;99.90;;;;;;5054550;28;20051;-81
2023/02/24 13:22:04;;;;;;;80.45;41.10;;;7.70;99.90;;;;;;5052751;28;20517;-81
2023/02/24 13:24:30;;;;;;;81.88;44.78;;;7.60;99.90;;;;;;5055135;28;20029;-81
2023/02/24 13:27:22;;;;;;;80.97;44.53;;;7.70;99.90;;;;;;5055053;28;20382;-81
2023/02/24 13:29:49;;;;;;;76.15;38.50;;;7.70;99.90;;;;;;5053171;28;20033;-81
2023/02/24 13:32:31;;;;;;;65.75;36.42;;;7.70;99.90;;;;;;5053866;28;20086;-82
2023/02/24 13:35:01;;;;;;;54.78;29.88;;;7.80;99.90;;;;;;5055040;28;20043;-81
2023/02/24 13:37:38;;;;;;;51.63;27.60;;;7.70;99.90;;;;;;5053494;28;20021;-81
2023/02/24 13:40:26;;;;;;;48.20;26.50;;;7.70;99.90;;;;;;5055134;28;20501;-81
2023/02/24 13:42:58;;;;;;;44.28;24.95;;;7.70;99.90;;;;;;5054797;28;20025;-81
2023/02/24 13:45:28;;;;;;;45.88;25.80;;;7.70;99.90;;;;;;5054657;28;20398;-81